Time;durP1;ratioP1;P1;durP2;ratioP2;P2;SDS_P1;SDS_P2;PMS_P1;PMS_P2;Temp;Humidity;BMP_temperature;BMP_pressure;BME280_temperature;BME280_humidity;BME280_pressure;Samples;Min_cycle;Max_cycle;Signal;HPM_P1;HPM_P2
2023/04/16 00:00:12;;;;;;;23.30;11.00;;;;;;;;;;4386000;32;318667;-79
2023/04/16 00:02:40;;;;;;;22.40;10.93;;;;;;;;;;4402054;32;318759;-79
2023/04/16 00:05:10;;;;;;;27.23;11.97;;;;;;;;;;4402299;32;318772;-81
2023/04/16 00:07:38;;;;;;;21.17;12.27;;;;;;;;;;4393891;32;416793;-79
2023/04/16 00:10:11;;;;;;;20.33;12.30;;;;;;;;;;4406526;32;318334;-81
2023/04/16 00:12:40;;;;;;;22.87;12.67;;;;;;;;;;4400227;32;420588;-76
2023/04/16 00:15:10;;;;;;;21.33;11.67;;;;;;;;;;4400535;32;318479;-74
2023/04/16 00:17:41;;;;;;;17.40;10.73;;;;;;;;;;4403606;32;318991;-77
2023/04/16 00:20:16;;;;;;;23.83;10.57;;;;;;;;;;4394261;32;318446;-76
2023/04/16 00:22:46;;;;;;;17.43;9.70;;;;;;;;;;4403086;32;318807;-79
2023/04/16 00:25:14;;;;;;;18.00;10.23;;;;;;;;;;4390878;32;317699;-79
2023/04/16 00:27:42;;;;;;;17.10;9.97;;;;;;;;;;4402549;32;318699;-79
2023/04/16 00:30:10;;;;;;;19.43;11.23;;;;;;;;;;4391777;32;317728;-79
2023/04/16 00:32:39;;;;;;;24.47;11.03;;;;;;;;;;4405324;32;319020;-79
2023/04/16 00:35:09;;;;;;;27.23;12.67;;;;;;;;;;4394565;32;319208;-77
2023/04/16 00:37:36;;;;;;;17.10;10.73;;;;;;;;;;4402730;32;318882;-79
2023/04/16 00:40:05;;;;;;;24.60;11.30;;;;;;;;;;4404559;32;318648;-77
2023/04/16 00:42:33;;;;;;;20.83;9.70;;;;;;;;;;4389903;32;418232;-79
2023/04/16 00:45:01;;;;;;;18.40;10.93;;;;;;;;;;4405214;32;317670;-77
2023/04/16 00:47:29;;;;;;;18.97;10.57;;;;;;;;;;4393243;32;318855;-81
2023/04/16 00:49:58;;;;;;;22.97;12.27;;;;;;;;;;4404364;32;318642;-81
2023/04/16 00:52:26;;;;;;;25.83;11.07;;;;;;;;;;4390796;32;337479;-80
2023/04/16 00:54:54;;;;;;;18.80;10.10;;;;;;;;;;4403991;32;319033;-80
2023/04/16 00:57:22;;;;;;;29.50;14.07;;;;;;;;;;4393066;32;348319;-80
2023/04/16 00:59:50;;;;;;;24.97;15.93;;;;;;;;;;4404921;32;318694;-80
2023/04/16 01:02:18;;;;;;;28.27;16.00;;;;;;;;;;4391731;32;358185;-79
2023/04/16 01:04:45;;;;;;;21.90;13.30;;;;;;;;;;4405219;32;318603;-80
2023/04/16 01:07:14;;;;;;;16.67;11.03;;;;;;;;;;4389361;32;318992;-78
2023/04/16 01:09:41;;;;;;;21.77;11.53;;;;;;;;;;4404279;32;318732;-77
2023/04/16 01:12:09;;;;;;;19.13;11.53;;;;;;;;;;4394659;32;318761;-80
2023/04/16 01:14:36;;;;;;;19.70;9.90;;;;;;;;;;4401186;32;337684;-80
2023/04/16 01:17:04;;;;;;;16.97;7.83;;;;;;;;;;4403796;32;317949;-81
2023/04/16 01:19:35;;;;;;;11.83;7.13;;;;;;;;;;4389753;32;417568;-81
2023/04/16 01:22:04;;;;;;;16.13;7.07;;;;;;;;;;4403936;32;317851;-80
2023/04/16 01:24:32;;;;;;;17.13;7.07;;;;;;;;;;4390305;32;417490;-81
2023/04/16 01:26:59;;;;;;;15.37;7.23;;;;;;;;;;4390288;32;317845;-79
2023/04/16 01:29:27;;;;;;;14.23;7.33;;;;;;;;;;4394447;32;317630;-78
2023/04/16 01:31:55;;;;;;;20.83;7.40;;;;;;;;;;4403162;32;316604;-77
2023/04/16 01:34:22;;;;;;;18.27;8.50;;;;;;;;;;4394118;32;317730;-78
2023/04/16 01:36:50;;;;;;;21.93;9.00;;;;;;;;;;4402125;32;327011;-79
2023/04/16 01:39:18;;;;;;;19.17;9.47;;;;;;;;;;4394050;32;317913;-77
2023/04/16 01:41:46;;;;;;;22.63;9.73;;;;;;;;;;4403455;32;317711;-80
2023/04/16 01:44:13;;;;;;;18.70;10.30;;;;;;;;;;4392984;32;317978;-80
2023/04/16 01:46:41;;;;;;;14.77;8.10;;;;;;;;;;4403611;32;318898;-79
2023/04/16 01:49:08;;;;;;;27.20;9.53;;;;;;;;;;4393180;32;317671;-80
2023/04/16 01:51:36;;;;;;;15.73;8.17;;;;;;;;;;4403576;32;317744;-80
2023/04/16 01:54:03;;;;;;;18.23;9.00;;;;;;;;;;4402984;32;317499;-81
2023/04/16 01:56:32;;;;;;;15.73;8.23;;;;;;;;;;4392225;32;317649;-79
2023/04/16 01:58:59;;;;;;;23.40;10.03;;;;;;;;;;4402987;32;317792;-79
2023/04/16 02:01:27;;;;;;;18.50;11.37;;;;;;;;;;4392240;32;319007;-78
2023/04/16 02:03:55;;;;;;;18.20;13.00;;;;;;;;;;4404408;32;319039;-80
2023/04/16 02:06:22;;;;;;;20.80;11.47;;;;;;;;;;4393722;32;318880;-80
2023/04/16 02:08:49;;;;;;;14.70;8.07;;;;;;;;;;4402405;32;323834;-80
2023/04/16 02:11:17;;;;;;;14.30;7.67;;;;;;;;;;4390666;32;317677;-79
2023/04/16 02:13:45;;;;;;;13.97;7.07;;;;;;;;;;4403138;32;318006;-81
2023/04/16 02:16:13;;;;;;;12.87;7.13;;;;;;;;;;4392670;32;318121;-81
2023/04/16 02:18:40;;;;;;;14.57;8.63;;;;;;;;;;4403407;32;317693;-80
2023/04/16 02:21:07;;;;;;;15.07;7.93;;;;;;;;;;4390796;32;317937;-79
2023/04/16 02:23:35;;;;;;;15.37;8.70;;;;;;;;;;4402291;32;317748;-80
2023/04/16 02:26:03;;;;;;;23.07;11.50;;;;;;;;;;4402938;32;317847;-80
2023/04/16 02:28:31;;;;;;;24.00;15.23;;;;;;;;;;4391133;32;318929;-80
2023/04/16 02:30:59;;;;;;;34.10;19.13;;;;;;;;;;4402392;32;319015;-81
2023/04/16 02:33:27;;;;;;;33.93;18.87;;;;;;;;;;4393333;32;318780;-80
2023/04/16 02:35:54;;;;;;;30.13;16.07;;;;;;;;;;4400130;32;318749;-79
2023/04/16 02:38:22;;;;;;;26.27;15.43;;;;;;;;;;4392040;32;318913;-80
2023/04/16 02:40:50;;;;;;;22.53;13.83;;;;;;;;;;4402824;32;318654;-77
2023/04/16 02:43:17;;;;;;;23.40;13.40;;;;;;;;;;4390336;32;354518;-80
2023/04/16 02:45:45;;;;;;;21.87;11.83;;;;;;;;;;4401270;32;318921;-80
2023/04/16 02:48:14;;;;;;;19.20;10.93;;;;;;;;;;4392564;32;318866;-77
2023/04/16 02:50:41;;;;;;;21.07;10.60;;;;;;;;;;4402325;32;318964;-80
2023/04/16 02:53:09;;;;;;;22.20;10.43;;;;;;;;;;4389784;32;318736;-80
2023/04/16 02:55:36;;;;;;;18.13;10.43;;;;;;;;;;4400091;32;318887;-80
2023/04/16 02:58:04;;;;;;;18.53;9.47;;;;;;;;;;4403092;32;318710;-80
2023/04/16 03:00:31;;;;;;;19.07;10.93;;;;;;;;;;4389994;32;331239;-80
2023/04/16 03:02:59;;;;;;;18.97;10.17;;;;;;;;;;4400750;32;318752;-80
2023/04/16 03:05:27;;;;;;;15.93;9.60;;;;;;;;;;4391479;32;318912;-79
2023/04/16 03:07:56;;;;;;;16.77;9.20;;;;;;;;;;4402301;32;317972;-80
2023/04/16 03:10:24;;;;;;;19.53;9.90;;;;;;;;;;4391752;32;318158;-79
2023/04/16 03:12:51;;;;;;;24.70;11.90;;;;;;;;;;4401567;32;317821;-81
2023/04/16 03:15:19;;;;;;;19.07;10.53;;;;;;;;;;4389229;32;318897;-81
2023/04/16 03:17:46;;;;;;;24.33;13.30;;;;;;;;;;4402240;32;318761;-80
2023/04/16 03:20:16;;;;;;;25.10;14.53;;;;;;;;;;4391259;32;319226;-80
2023/04/16 03:22:45;;;;;;;26.00;15.37;;;;;;;;;;4401787;32;318804;-81
2023/04/16 03:25:12;;;;;;;24.90;13.97;;;;;;;;;;4391392;32;318763;-80
2023/04/16 03:27:39;;;;;;;21.50;12.27;;;;;;;;;;4401112;32;351585;-80
2023/04/16 03:30:08;;;;;;;26.17;12.63;;;;;;;;;;4394008;32;318780;-80
2023/04/16 03:32:36;;;;;;;18.83;10.90;;;;;;;;;;4402448;32;318769;-79
2023/04/16 03:35:04;;;;;;;22.43;12.13;;;;;;;;;;4389422;32;318858;-81
2023/04/16 03:37:31;;;;;;;23.77;11.40;;;;;;;;;;4384191;32;319054;-79
2023/04/16 03:40:00;;;;;;;24.53;13.07;;;;;;;;;;4400791;32;326349;-79
2023/04/16 03:42:27;;;;;;;23.97;14.10;;;;;;;;;;4391041;32;319025;-79
2023/04/16 03:44:56;;;;;;;23.63;13.73;;;;;;;;;;4402006;32;318808;-77
2023/04/16 03:47:23;;;;;;;23.73;11.17;;;;;;;;;;4390924;32;319043;-80
2023/04/16 03:49:51;;;;;;;17.73;11.00;;;;;;;;;;4400017;32;349259;-78
2023/04/16 03:52:18;;;;;;;25.17;11.37;;;;;;;;;;4390527;32;319064;-79
2023/04/16 03:54:45;;;;;;;28.07;10.90;;;;;;;;;;4400472;32;334955;-79
2023/04/16 03:57:14;;;;;;;21.47;10.80;;;;;;;;;;4390231;32;318947;-79
2023/04/16 03:59:41;;;;;;;25.33;10.73;;;;;;;;;;4400708;32;318680;-81
2023/04/16 04:02:09;;;;;;;25.47;11.03;;;;;;;;;;4391538;32;318978;-79
2023/04/16 04:04:36;;;;;;;28.00;14.47;;;;;;;;;;4401594;32;319118;-80
2023/04/16 04:07:03;;;;;;;20.03;12.87;;;;;;;;;;4400291;32;338277;-78
2023/04/16 04:09:32;;;;;;;18.80;12.70;;;;;;;;;;4402863;32;318429;-77
2023/04/16 04:12:00;;;;;;;21.07;13.30;;;;;;;;;;4413816;32;318473;-79
2023/04/16 04:14:29;;;;;;;24.57;13.57;;;;;;;;;;4400412;32;318752;-77
2023/04/16 04:16:56;;;;;;;18.13;12.63;;;;;;;;;;4409299;32;318735;-80
2023/04/16 04:19:48;;;;;;;25.50;14.47;;;;;;;;;;4394245;32;318914;-81
2023/04/16 04:22:37;;;;;;;27.67;14.73;;;;;;;;;;4371717;32;318022;-81
2023/04/16 04:25:08;;;;;;;24.33;14.07;;;;;;;;;;4382668;32;319115;-78
2023/04/16 04:27:35;;;;;;;18.37;12.23;;;;;;;;;;4401790;32;318843;-77
2023/04/16 04:30:04;;;;;;;23.90;12.23;;;;;;;;;;4401998;32;319100;-81
2023/04/16 04:32:32;;;;;;;20.50;13.83;;;;;;;;;;4389828;32;418300;-77
2023/04/16 04:35:01;;;;;;;18.10;10.63;;;;;;;;;;4400701;32;355797;-81
2023/04/16 04:37:29;;;;;;;16.87;9.27;;;;;;;;;;4392038;32;318880;-80
2023/04/16 04:39:56;;;;;;;16.67;10.60;;;;;;;;;;4404307;32;317664;-81
2023/04/16 04:42:24;;;;;;;17.23;10.37;;;;;;;;;;4389036;32;343504;-78
2023/04/16 04:44:51;;;;;;;33.03;20.23;;;;;;;;;;4400611;32;318946;-82
2023/04/16 04:47:20;;;;;;;23.27;13.03;;;;;;;;;;4390235;32;318854;-82
2023/04/16 04:49:48;;;;;;;21.93;11.00;;;;;;;;;;4401203;32;318869;-81
2023/04/16 04:52:15;;;;;;;15.30;10.23;;;;;;;;;;4389779;32;318980;-80
2023/04/16 04:54:43;;;;;;;21.03;11.93;;;;;;;;;;4401760;32;318831;-79
2023/04/16 04:57:10;;;;;;;88.83;49.37;;;;;;;;;;4390434;32;318952;-80
2023/04/16 04:59:38;;;;;;;92.67;61.57;;;;;;;;;;4399156;32;357237;-81
2023/04/16 05:02:05;;;;;;;32.77;24.30;;;;;;;;;;4399630;32;319184;-79
2023/04/16 05:04:34;;;;;;;24.17;17.60;;;;;;;;;;4387127;32;418438;-82
2023/04/16 05:07:01;;;;;;;25.47;16.90;;;;;;;;;;4400993;32;318801;-80
2023/04/16 05:09:29;;;;;;;22.40;14.67;;;;;;;;;;4389980;32;318887;-81
2023/04/16 05:11:57;;;;;;;22.20;15.97;;;;;;;;;;4399883;32;318821;-81
2023/04/16 05:14:24;;;;;;;40.37;25.77;;;;;;;;;;4390307;32;318835;-79
2023/04/16 05:16:52;;;;;;;27.93;20.73;;;;;;;;;;4402137;32;320691;-79
2023/04/16 05:19:20;;;;;;;35.93;19.83;;;;;;;;;;4393047;32;318861;-82
2023/04/16 05:21:49;;;;;;;21.47;12.43;;;;;;;;;;4403396;32;318987;-81
2023/04/16 05:24:16;;;;;;;28.87;12.00;;;;;;;;;;4393654;32;318977;-82
2023/04/16 05:26:43;;;;;;;29.27;13.40;;;;;;;;;;4404105;32;318758;-81
2023/04/16 05:29:11;;;;;;;26.93;14.50;;;;;;;;;;4392549;32;318683;-81
2023/04/16 05:31:38;;;;;;;25.10;13.67;;;;;;;;;;4402883;32;318760;-77
2023/04/16 05:34:06;;;;;;;34.00;19.53;;;;;;;;;;4403269;32;318907;-79
2023/04/16 05:36:33;;;;;;;33.60;18.10;;;;;;;;;;4390507;32;418259;-82
2023/04/16 05:39:02;;;;;;;29.90;16.37;;;;;;;;;;4404354;32;318845;-80
2023/04/16 05:41:29;;;;;;;25.70;14.47;;;;;;;;;;4393277;32;319273;-79
2023/04/16 05:43:57;;;;;;;18.37;12.27;;;;;;;;;;4402954;32;319114;-80
2023/04/16 05:46:24;;;;;;;24.43;10.23;;;;;;;;;;4393243;32;319030;-80
2023/04/16 05:48:52;;;;;;;22.83;11.77;;;;;;;;;;4402146;32;317777;-78
2023/04/16 05:51:21;;;;;;;22.33;12.07;;;;;;;;;;4393217;32;319092;-81
2023/04/16 05:53:49;;;;;;;24.07;13.57;;;;;;;;;;4402318;32;318777;-80
2023/04/16 05:56:18;;;;;;;26.03;14.23;;;;;;;;;;4391253;32;319034;-79
2023/04/16 05:58:45;;;;;;;21.40;12.00;;;;;;;;;;4404319;32;318860;-79
2023/04/16 06:01:12;;;;;;;21.73;12.30;;;;;;;;;;4392738;32;318908;-80
2023/04/16 06:03:40;;;;;;;21.40;11.93;;;;;;;;;;4401261;32;355506;-79
2023/04/16 06:06:08;;;;;;;22.90;13.07;;;;;;;;;;4394938;32;318873;-81
2023/04/16 06:08:35;;;;;;;19.63;11.43;;;;;;;;;;4401976;32;318509;-82
2023/04/16 06:11:03;;;;;;;13.63;8.87;;;;;;;;;;4403618;32;318797;-81
2023/04/16 06:13:32;;;;;;;19.70;11.53;;;;;;;;;;4393234;32;317926;-82
2023/04/16 06:15:59;;;;;;;23.70;12.73;;;;;;;;;;4404098;32;318836;-83
2023/04/16 06:18:27;;;;;;;27.35;14.05;;;;;;;;;;4392422;32;319109;-81
2023/04/16 06:20:55;;;;;;;35.97;19.90;;;;;;;;;;4401994;32;319272;-79
2023/04/16 06:23:22;;;;;;;24.47;14.47;;;;;;;;;;4378763;32;318808;-80
2023/04/16 06:25:50;;;;;;;22.03;14.47;;;;;;;;;;4389970;32;325260;-79
2023/04/16 06:28:17;;;;;;;24.83;15.43;;;;;;;;;;4391443;32;318972;-78
2023/04/16 06:30:47;;;;;;;33.70;17.23;;;;;;;;;;4403901;32;319036;-77
2023/04/16 06:33:15;;;;;;;35.30;18.63;;;;;;;;;;4390361;32;318873;-78
2023/04/16 06:35:42;;;;;;;35.67;19.93;;;;;;;;;;4399781;32;318788;-80
2023/04/16 06:38:10;;;;;;;35.80;21.43;;;;;;;;;;4391596;32;324938;-77
2023/04/16 06:40:39;;;;;;;38.37;22.67;;;;;;;;;;4401019;32;318875;-77
2023/04/16 06:43:07;;;;;;;33.23;21.97;;;;;;;;;;4402104;32;318879;-81
2023/04/16 06:45:35;;;;;;;36.80;23.87;;;;;;;;;;4347008;32;388982;-81
2023/04/16 06:48:04;;;;;;;35.40;22.07;;;;;;;;;;4398398;32;318798;-81
2023/04/16 06:50:32;;;;;;;34.23;20.03;;;;;;;;;;4392485;32;318878;-81
2023/04/16 06:52:59;;;;;;;29.57;16.17;;;;;;;;;;4402888;32;319126;-80
2023/04/16 06:55:26;;;;;;;30.30;16.37;;;;;;;;;;4392264;32;318998;-81
2023/04/16 06:57:54;;;;;;;31.93;17.60;;;;;;;;;;4401359;32;318826;-81
2023/04/16 07:00:21;;;;;;;26.53;15.20;;;;;;;;;;4391945;32;318746;-81
2023/04/16 07:02:49;;;;;;;26.20;17.10;;;;;;;;;;4402042;32;318972;-77
2023/04/16 07:05:18;;;;;;;26.23;18.03;;;;;;;;;;4392882;32;318699;-78
2023/04/16 07:07:45;;;;;;;32.27;19.30;;;;;;;;;;4401515;32;318835;-79
2023/04/16 07:10:12;;;;;;;28.93;16.03;;;;;;;;;;4393274;32;319059;-80
2023/04/16 07:12:40;;;;;;;31.40;19.63;;;;;;;;;;4401692;32;352862;-80
2023/04/16 07:15:09;;;;;;;32.45;21.58;;;;;;;;;;4397488;32;318773;-79
2023/04/16 07:17:36;;;;;;;51.30;30.90;;;;;;;;;;4401659;32;318850;-80
2023/04/16 07:20:04;;;;;;;45.07;28.17;;;;;;;;;;4401978;32;319029;-81
2023/04/16 07:22:33;;;;;;;43.07;26.17;;;;;;;;;;4392317;32;318982;-80
2023/04/16 07:25:00;;;;;;;40.77;24.63;;;;;;;;;;4402216;32;318879;-78
2023/04/16 07:27:28;;;;;;;46.30;26.60;;;;;;;;;;4382217;32;318771;-80
2023/04/16 07:29:55;;;;;;;39.93;23.47;;;;;;;;;;4391275;32;318820;-80
2023/04/16 07:32:23;;;;;;;44.57;24.70;;;;;;;;;;4389921;32;318582;-80
2023/04/16 07:34:50;;;;;;;37.40;21.30;;;;;;;;;;4403672;32;319192;-80
2023/04/16 07:37:18;;;;;;;36.60;20.43;;;;;;;;;;4392130;32;318714;-81
2023/04/16 07:39:47;;;;;;;31.70;19.20;;;;;;;;;;4401343;32;317471;-81
2023/04/16 07:42:14;;;;;;;34.43;19.83;;;;;;;;;;4391809;32;318702;-79
2023/04/16 07:44:42;;;;;;;31.37;17.07;;;;;;;;;;4402201;32;317702;-79
2023/04/16 07:47:09;;;;;;;29.80;17.60;;;;;;;;;;4389766;32;318663;-79
2023/04/16 07:49:37;;;;;;;31.23;18.87;;;;;;;;;;4400479;32;333332;-79
2023/04/16 07:52:04;;;;;;;26.07;17.73;;;;;;;;;;4401203;32;318936;-79
2023/04/16 07:54:31;;;;;;;31.17;18.90;;;;;;;;;;4392141;32;318636;-78
2023/04/16 07:57:00;;;;;;;35.43;18.73;;;;;;;;;;4400825;32;318806;-77
2023/04/16 07:59:28;;;;;;;32.33;16.93;;;;;;;;;;4390533;32;317491;-78
2023/04/16 08:01:55;;;;;;;28.87;15.93;;;;;;;;;;4401200;32;318753;-80
2023/04/16 08:04:24;;;;;;;28.67;12.57;;;;;;;;;;4391708;32;318972;-80
2023/04/16 08:06:52;;;;;;;21.27;10.83;;;;;;;;;;4401348;32;318833;-80
2023/04/16 08:09:20;;;;;;;18.67;11.30;;;;;;;;;;4391046;32;318605;-79
2023/04/16 08:11:48;;;;;;;18.27;9.10;;;;;;;;;;4413073;32;317480;-80
2023/04/16 08:14:17;;;;;;;17.33;10.70;;;;;;;;;;4398111;32;316326;-79
2023/04/16 08:16:45;;;;;;;25.10;12.23;;;;;;;;;;4411242;32;318574;-73
2023/04/16 08:19:12;;;;;;;21.80;10.30;;;;;;;;;;4396415;32;318547;-80
2023/04/16 08:21:40;;;;;;;17.70;8.83;;;;;;;;;;4405036;32;318499;-79
2023/04/16 08:24:29;;;;;;;12.20;8.80;;;;;;;;;;4402393;32;317830;-78
2023/04/16 08:26:57;;;;;;;21.87;9.30;;;;;;;;;;4360370;32;389044;-81
2023/04/16 08:29:26;;;;;;;21.00;10.70;;;;;;;;;;4391273;32;318023;-80
2023/04/16 08:31:54;;;;;;;19.70;11.90;;;;;;;;;;4401586;32;318520;-76
2023/04/16 08:34:21;;;;;;;16.33;8.80;;;;;;;;;;4390179;32;318896;-81
2023/04/16 08:36:48;;;;;;;16.33;8.57;;;;;;;;;;4402683;32;317985;-80
2023/04/16 08:39:16;;;;;;;12.07;6.47;;;;;;;;;;4389635;32;317494;-79
2023/04/16 08:41:47;;;;;;;16.50;8.10;;;;;;;;;;4402598;32;317697;-76
2023/04/16 08:44:21;;;;;;;12.57;6.37;;;;;;;;;;4390005;32;317976;-78
2023/04/16 08:46:57;;;;;;;14.33;6.27;;;;;;;;;;4402725;32;317839;-78
2023/04/16 08:49:25;;;;;;;10.83;5.50;;;;;;;;;;4393275;32;317982;-77
2023/04/16 08:51:55;;;;;;;14.67;6.80;;;;;;;;;;4403577;32;317826;-79
2023/04/16 08:54:32;;;;;;;10.53;6.63;;;;;;;;;;4394060;32;317892;-78
2023/04/16 08:57:04;;;;;;;12.60;7.63;;;;;;;;;;4403304;32;317855;-80
2023/04/16 08:59:32;;;;;;;13.53;6.50;;;;;;;;;;4394122;32;317943;-77
2023/04/16 09:02:01;;;;;;;13.83;5.90;;;;;;;;;;4402790;32;317735;-80
2023/04/16 09:04:29;;;;;;;10.90;5.83;;;;;;;;;;4393930;32;317823;-81
2023/04/16 09:07:01;;;;;;;9.67;6.37;;;;;;;;;;4405697;32;317500;-79
2023/04/16 09:09:29;;;;;;;12.05;6.78;;;;;;;;;;4394792;32;316696;-78
2023/04/16 09:11:56;;;;;;;11.57;4.70;;;;;;;;;;4403874;32;317884;-77
2023/04/16 09:14:23;;;;;;;7.97;3.87;;;;;;;;;;4392707;32;317692;-80
2023/04/16 09:16:54;;;;;;;9.82;5.55;;;;;;;;;;4402665;32;316910;-79
2023/04/16 09:19:23;;;;;;;13.13;5.68;;;;;;;;;;4393524;32;316606;-82
2023/04/16 09:21:51;;;;;;;7.17;4.47;;;;;;;;;;4403812;32;317810;-79
2023/04/16 09:24:20;;;;;;;9.70;4.65;;;;;;;;;;4393628;32;317197;-80
2023/04/16 09:26:51;;;;;;;10.07;4.78;;;;;;;;;;4401294;32;316746;-80
2023/04/16 09:29:35;;;;;;;6.03;3.95;;;;;;;;;;4390770;32;317626;-77
2023/04/16 09:32:04;;;;;;;6.93;4.62;;;;;;;;;;4403968;32;316716;-78
2023/04/16 09:34:35;;;;;;;7.62;3.58;;;;;;;;;;4391497;32;316896;-78
2023/04/16 09:37:16;;;;;;;9.43;3.55;;;;;;;;;;4401961;32;330051;-78
2023/04/16 09:39:43;;;;;;;50.33;14.35;;;;;;;;;;4389372;32;416081;-80
2023/04/16 09:42:12;;;;;;;30.67;12.43;;;;;;;;;;4384606;32;339731;-80
2023/04/16 09:44:39;;;;;;;8.70;5.05;;;;;;;;;;4389994;32;319024;-79
2023/04/16 09:47:09;;;;;;;10.60;3.78;;;;;;;;;;4401684;32;316772;-80
2023/04/16 09:49:44;;;;;;;14.87;4.12;;;;;;;;;;4389342;32;420395;-81
2023/04/16 09:52:15;;;;;;;7.20;3.83;;;;;;;;;;4387612;32;318019;-81
2023/04/16 09:54:48;;;;;;;9.88;4.25;;;;;;;;;;4403084;32;316020;-80
2023/04/16 09:57:27;;;;;;;10.68;3.90;;;;;;;;;;4387579;32;343049;-80
2023/04/16 10:00:02;;;;;;;7.22;3.42;;;;;;;;;;4400795;32;316689;-80
2023/04/16 10:02:31;;;;;;;5.85;2.80;;;;;;;;;;4394223;32;316846;-80
2023/04/16 10:05:02;;;;;;;15.15;4.20;;;;;;;;;;4405467;32;316651;-80
2023/04/16 10:07:34;;;;;;;14.85;6.35;;;;;;;;;;4391847;32;319701;-78
2023/04/16 10:10:05;;;;;;;15.60;5.07;;;;;;;;;;4400979;32;317706;-82
2023/04/16 10:12:35;;;;;;;7.10;4.13;;;;;;;;;;4386563;32;416983;-81
2023/04/16 10:15:03;;;;;;;7.20;2.50;;;;;;;;;;4401138;32;316590;-79
2023/04/16 10:17:32;;;;;;;7.57;3.28;;;;;;;;;;4391933;32;316822;-76
2023/04/16 10:20:03;;;;;;;6.00;3.22;;;;;;;;;;4401816;32;316816;-78
2023/04/16 10:22:31;;;;;;;9.90;2.85;;;;;;;;;;4389745;32;316768;-78
2023/04/16 10:24:59;;;;;;;8.77;2.92;;;;;;;;;;4400104;32;316568;-77
2023/04/16 10:27:28;;;;;;;6.03;2.90;;;;;;;;;;4391691;32;316640;-77
2023/04/16 10:29:56;;;;;;;6.87;1.95;;;;;;;;;;4399912;32;316869;-77
2023/04/16 10:32:27;;;;;;;5.68;2.03;;;;;;;;;;4391593;32;317091;-77
2023/04/16 10:34:55;;;;;;;2.42;1.30;;;;;;;;;;4401016;32;316725;-77
2023/04/16 10:37:32;;;;;;;3.30;1.70;;;;;;;;;;4390081;32;316918;-78
2023/04/16 10:40:00;;;;;;;27.60;3.42;;;;;;;;;;4401834;32;316746;-76
2023/04/16 10:42:28;;;;;;;8.57;4.05;;;;;;;;;;4390927;32;317772;-77
2023/04/16 10:44:59;;;;;;;4.43;2.45;;;;;;;;;;4399881;32;338939;-77
2023/04/16 10:47:29;;;;;;;3.95;2.37;;;;;;;;;;4389290;32;316665;-77
2023/04/16 10:49:58;;;;;;;4.82;1.70;;;;;;;;;;4400844;32;316810;-79
2023/04/16 10:52:29;;;;;;;4.47;1.50;;;;;;;;;;4380268;32;316688;-79
2023/04/16 10:55:00;;;;;;;2.42;1.20;;;;;;;;;;4389116;32;316868;-79
2023/04/16 10:57:30;;;;;;;5.95;1.40;;;;;;;;;;4389385;32;316671;-79
2023/04/16 10:59:59;;;;;;;2.35;1.30;;;;;;;;;;4401250;32;334694;-82
2023/04/16 11:02:29;;;;;;;2.37;1.23;;;;;;;;;;4383677;32;315643;-76
2023/04/16 11:04:57;;;;;;;6.60;1.60;;;;;;;;;;4402061;32;316739;-78
2023/04/16 11:07:38;;;;;;;4.82;1.55;;;;;;;;;;4390958;32;316766;-79
2023/04/16 11:10:14;;;;;;;5.87;1.90;;;;;;;;;;4400032;32;316702;-78
2023/04/16 11:12:44;;;;;;;2.62;1.33;;;;;;;;;;4380473;32;416197;-81
2023/04/16 11:15:14;;;;;;;4.20;1.90;;;;;;;;;;4388833;32;316623;-78
2023/04/16 11:17:43;;;;;;;5.32;3.20;;;;;;;;;;4401650;32;316782;-79
2023/04/16 11:20:16;;;;;;;4.85;3.00;;;;;;;;;;4388141;32;316859;-78
2023/04/16 11:22:45;;;;;;;7.22;3.87;;;;;;;;;;4399739;32;316866;-78
2023/04/16 11:25:20;;;;;;;13.27;4.55;;;;;;;;;;4389146;32;316830;-78
2023/04/16 11:27:48;;;;;;;7.00;4.95;;;;;;;;;;4401850;32;317845;-78
2023/04/16 11:30:15;;;;;;;10.10;4.40;;;;;;;;;;4390683;32;317041;-82
2023/04/16 11:32:45;;;;;;;9.20;4.75;;;;;;;;;;4401812;32;317895;-81
2023/04/16 11:35:16;;;;;;;6.70;4.05;;;;;;;;;;4386886;32;318094;-82
2023/04/16 11:37:44;;;;;;;6.97;3.62;;;;;;;;;;4401688;32;316679;-82
2023/04/16 11:40:16;;;;;;;7.33;4.30;;;;;;;;;;4387460;32;316992;-77
2023/04/16 11:42:44;;;;;;;9.05;4.60;;;;;;;;;;4398944;32;316568;-81
2023/04/16 11:45:13;;;;;;;10.57;5.18;;;;;;;;;;4386553;32;351277;-79
2023/04/16 11:47:45;;;;;;;8.63;5.30;;;;;;;;;;4401028;32;317912;-82
2023/04/16 11:50:21;;;;;;;8.82;4.65;;;;;;;;;;4390871;32;316781;-79
2023/04/16 11:52:49;;;;;;;8.00;5.25;;;;;;;;;;4399410;32;316525;-82
2023/04/16 11:55:18;;;;;;;15.53;5.40;;;;;;;;;;4389930;32;316765;-81
2023/04/16 11:57:45;;;;;;;9.17;6.03;;;;;;;;;;4402106;32;317871;-82
2023/04/16 12:00:14;;;;;;;12.90;6.95;;;;;;;;;;4390027;32;316884;-79
2023/04/16 12:02:44;;;;;;;13.50;6.50;;;;;;;;;;4399897;32;317817;-82
2023/04/16 12:05:27;;;;;;;12.00;5.75;;;;;;;;;;4389871;32;317644;-82
2023/04/16 12:07:55;;;;;;;7.78;4.68;;;;;;;;;;4400876;32;317564;-81
2023/04/16 12:10:24;;;;;;;12.23;6.20;;;;;;;;;;4389870;32;342441;-81
2023/04/16 12:12:52;;;;;;;7.83;4.43;;;;;;;;;;4405696;32;317609;-79
2023/04/16 12:15:19;;;;;;;11.63;4.60;;;;;;;;;;4403709;32;325371;-81
2023/04/16 12:17:47;;;;;;;10.13;3.55;;;;;;;;;;4412408;32;317695;-81
2023/04/16 12:20:16;;;;;;;5.15;2.97;;;;;;;;;;4401084;32;317248;-80
2023/04/16 12:22:46;;;;;;;9.00;2.85;;;;;;;;;;4408854;32;316852;-80
2023/04/16 12:25:15;;;;;;;12.00;3.25;;;;;;;;;;4397807;32;316673;-81
2023/04/16 12:27:46;;;;;;;11.18;3.90;;;;;;;;;;4404760;32;317936;-79
2023/04/16 12:30:15;;;;;;;8.88;4.40;;;;;;;;;;4390167;32;317926;-78
2023/04/16 12:32:44;;;;;;;8.57;3.28;;;;;;;;;;4399887;32;316803;-78
2023/04/16 12:35:12;;;;;;;8.75;2.83;;;;;;;;;;4390296;32;316630;-78
2023/04/16 12:37:40;;;;;;;5.37;3.45;;;;;;;;;;4400533;32;316788;-79
2023/04/16 12:40:08;;;;;;;8.93;3.80;;;;;;;;;;4395335;32;316944;-79
2023/04/16 12:42:36;;;;;;;5.80;3.03;;;;;;;;;;4400752;32;316718;-78
2023/04/16 12:45:06;;;;;;;6.28;2.55;;;;;;;;;;4400177;32;316817;-79
2023/04/16 12:47:34;;;;;;;7.50;3.67;;;;;;;;;;4388403;32;416042;-78
2023/04/16 12:50:01;;;;;;;10.05;3.67;;;;;;;;;;4400073;32;324469;-78
2023/04/16 12:52:29;;;;;;;8.35;3.75;;;;;;;;;;4389827;32;317964;-79
2023/04/16 12:54:56;;;;;;;9.65;4.00;;;;;;;;;;4400186;32;316650;-78
2023/04/16 12:57:27;;;;;;;5.22;3.40;;;;;;;;;;4390763;32;316556;-81
2023/04/16 12:59:55;;;;;;;6.00;2.92;;;;;;;;;;4400475;32;316695;-80
2023/04/16 13:02:25;;;;;;;4.28;2.47;;;;;;;;;;4390065;32;316678;-82
2023/04/16 13:04:53;;;;;;;6.85;2.53;;;;;;;;;;4398429;32;316584;-81
2023/04/16 13:07:21;;;;;;;3.75;2.30;;;;;;;;;;4388814;32;316569;-82
2023/04/16 13:09:48;;;;;;;8.05;2.58;;;;;;;;;;4400986;32;316621;-81
2023/04/16 13:12:16;;;;;;;5.95;2.55;;;;;;;;;;4388474;32;316865;-81
2023/04/16 13:14:43;;;;;;;8.32;3.03;;;;;;;;;;4401365;32;316607;-82
2023/04/16 13:17:10;;;;;;;3.72;2.58;;;;;;;;;;4387137;32;316764;-81
2023/04/16 13:19:39;;;;;;;5.05;2.80;;;;;;;;;;4398522;32;316624;-79
2023/04/16 13:22:07;;;;;;;5.68;2.95;;;;;;;;;;4400137;32;316576;-82
2023/04/16 13:24:34;;;;;;;10.40;3.28;;;;;;;;;;4386767;32;416612;-81
2023/04/16 13:27:03;;;;;;;5.12;2.90;;;;;;;;;;4385182;32;318174;-81
2023/04/16 13:29:31;;;;;;;4.95;2.83;;;;;;;;;;4389048;32;317259;-83
2023/04/16 13:32:03;;;;;;;8.85;5.28;;;;;;;;;;4398940;32;316855;-81
2023/04/16 13:34:30;;;;;;;5.72;3.25;;;;;;;;;;4388744;32;316968;-82
2023/04/16 13:36:59;;;;;;;9.45;4.45;;;;;;;;;;4399903;32;316826;-79
2023/04/16 13:39:26;;;;;;;8.70;3.10;;;;;;;;;;4389726;32;340601;-82
2023/04/16 13:41:54;;;;;;;7.20;2.90;;;;;;;;;;4403140;32;316961;-81
2023/04/16 13:44:23;;;;;;;6.82;3.25;;;;;;;;;;4391564;32;317083;-82
2023/04/16 13:46:50;;;;;;;19.30;3.75;;;;;;;;;;4402733;32;317220;-82
2023/04/16 13:49:18;;;;;;;14.65;2.85;;;;;;;;;;4395308;32;317709;-80
2023/04/16 13:51:46;;;;;;;16.55;2.87;;;;;;;;;;4401835;32;317866;-80
2023/04/16 13:54:15;;;;;;;4.57;2.80;;;;;;;;;;4391260;32;317885;-77
2023/04/16 13:56:43;;;;;;;8.35;2.40;;;;;;;;;;4402861;32;316893;-80
2023/04/16 13:59:11;;;;;;;5.85;2.97;;;;;;;;;;4390719;32;316834;-80
2023/04/16 14:01:38;;;;;;;10.82;3.65;;;;;;;;;;4402203;32;317142;-79
2023/04/16 14:04:07;;;;;;;9.15;2.95;;;;;;;;;;4402572;32;317948;-79
2023/04/16 14:06:34;;;;;;;10.30;3.92;;;;;;;;;;4390893;32;415993;-80
2023/04/16 14:09:02;;;;;;;8.60;3.70;;;;;;;;;;4402643;32;318225;-79
2023/04/16 14:11:31;;;;;;;8.45;3.97;;;;;;;;;;4392637;32;316885;-79
2023/04/16 14:13:59;;;;;;;8.48;3.35;;;;;;;;;;4402652;32;317304;-78
2023/04/16 14:16:26;;;;;;;7.93;4.12;;;;;;;;;;4393154;32;317119;-83
2023/04/16 14:18:53;;;;;;;9.85;3.78;;;;;;;;;;4402282;32;316847;-81
2023/04/16 14:21:21;;;;;;;8.93;4.37;;;;;;;;;;4392042;32;316992;-81